Fincastle, Indiana
Current Conditions -  °F | °C
As of 3:15 PM on Sunday 23 Nov 2014 (Local Time) from K4I7 Reporting Station
Moderate Rain Moderate Rain  
Wind Chill: 10°   Ceiling: 500
Heat Index: 10°   Visibility: 1.2mi
Dew Point: 10°   Wind: 7mph
Humidity: 100%   Direction: 130°SE
Pressure: 29.56"   Gusts: NA
Location:  39.821°N, 86.7929°W
Report Text: K4I7 232015Z AUTO 13006KT 1 1/4SM RA OVC005 10/10 A2956 RMK AO2 P0009
Loading
Personal Weather Stations






























Interactive Weather Map New forecast layout! Learn more

10-Day Weather Forecast

Advertisements
Track Severe Weather on mobile